Search for airport 
image banner adimage banner adimage banner ad
image banner ad

KCMA - Camarillo

Located in Camarillo, United States

ICAO - CMA, IATA -

Data provided by Airmate  

General information

Coordinates: N34°12'50" W119°5'40"
Elevation is 77 feet MSL.
Magnetic variation is 14° East
View others Airports in California

Operational data

Special qualification required
Current time UTC:
Current local time:
Weather
METAR: KCMA 221355Z 29005KT 8SM OVC009 18/13 A2993 RMK AO2 SLP145 T01780133
TAF: KCMA 221300Z 2213/2312 VRB03KT P6SM OVC010 FM221900 24009KT P6SM SCT012 FM230500 VRB03KT P6SM BKN007
View NOTAMs / SUP AIP / TFR affecting this airport [VIEW]
Communications frequencies: [VIEW]

Runways:

RWY identifierQFULength (ft)Width (ft)SurfaceLDA (ft)
0890°6013150OTHER
26270°6013150OTHER

Airport contact information

Address: Camarillo United States

Other aviation service providers

Flight schools

Channel Islands Aviation, Inc

Channel Islands Aviation, Inc
cia@flycia.com+1(805)987-1301

Camarillo Flight Instruction

Camarillo Flight Instruction

Atp Flight School (800-All-Atps)

Atp Flight School (800-All-Atps)

Satellite view of KCMA